Selah — WDF2234 — position and weather

sailwx.info

Track history (hours):
 
Tides and Currents Weather Stations Pressure Air Temp Water Temp Dewpoint Dewpoint Depression Visibility Wind Speed Wind Dir Waves Ship Positions

Selah

Owner: Scadron-Wattles, Stuart D, Seattle, WA. More information available from US FCC via Universal Licensing System.

Last reported at 2018-Jan-07 18:18 UTC. Time now 2018-Jan-18 00:16 UTC.
Position N 47°38' W 122°24'.
Warning: this ship's position is 10 days out of date.

Length 12 m.

Type: Sailing vessel. MMSI: 367426360.

Date/timePositionNaut miles runAvg speedWind from/ knotsBaromVisibWave heightAir tempDewpointWater temp
2018-Jan-07 18:18N 47°38' W 122°24'0 0.1
2018-Jan-07 17:58N 47°38' W 122°24'2 4.0
2018-Jan-07 17:30N 47°37' W 122°26'3 6.0
2018-Jan-07 17:00N 47°36' W 122°30'0 0.0
2018-Jan-06 20:46N 47°36' W 122°31'0 1.1
2018-Jan-06 20:29N 47°36' W 122°30'2 4.5
2018-Jan-06 19:58N 47°34' W 122°28'1 2.7
2018-Jan-06 19:30N 47°33' W 122°29'0 0.0
2018-Jan-05 21:26N 47°33' W 122°29'1 2.5
2018-Jan-05 20:59N 47°34' W 122°28'3 5.8
2018-Jan-05 20:29N 47°36' W 122°26'2 4.7
2018-Jan-05 20:00N 47°38' W 122°24'0 0.2
2018-Jan-05 19:28N 47°38' W 122°24'  
Track history (hours):
 
Tides and Currents Weather Stations Pressure Air Temp Water Temp Dewpoint Dewpoint Depression Visibility Wind Speed Wind Dir Waves Ship Positions

Selah

Owner: Scadron-Wattles, Stuart D, Seattle, WA. More information available from US FCC via Universal Licensing System.

Last reported at 2018-Jan-07 18:18 UTC. Time now 2018-Jan-18 00:16 UTC.
Position N 47°38' W 122°24'.
Warning: this ship's position is 10 days out of date.

Length 12 m.

Type: Sailing vessel. MMSI: 367426360.

Date/timePositionNaut miles runAvg speedWind from/ knotsBaromVisibWave heightAir tempDewpointWater temp
2018-Jan-07 18:18N 47°38' W 122°24'0 0.1
2018-Jan-07 17:58N 47°38' W 122°24'2 4.0
2018-Jan-07 17:30N 47°37' W 122°26'3 6.0
2018-Jan-07 17:00N 47°36' W 122°30'0 0.0
2018-Jan-06 20:46N 47°36' W 122°31'0 1.1
2018-Jan-06 20:29N 47°36' W 122°30'2 4.5
2018-Jan-06 19:58N 47°34' W 122°28'1 2.7
2018-Jan-06 19:30N 47°33' W 122°29'0 0.0
2018-Jan-05 21:26N 47°33' W 122°29'1 2.5
2018-Jan-05 20:59N 47°34' W 122°28'3 5.8
2018-Jan-05 20:29N 47°36' W 122°26'2 4.7
2018-Jan-05 20:00N 47°38' W 122°24'0 0.2
2018-Jan-05 19:28N 47°38' W 122°24'  

Dump ship's entire track history